To NAV CANADA Home Page Login to a new session Search on AWWS site Feedback and Comments Disclaimer Vers la page française équivalente Tips FAQ What's new on the site To the Forecasts and Observations / NOTAM section To "File a Flight Plan" website Publications and other links Update of the User's profile FIC Telephone Numbers My Weather Data Folder Route Weather Data Regional Weather Data Local Weather Data To the Forecasts and Observations / NOTAM section
Request Generated 12/02/2015 at 05:06:10 UTC . Weather information available at that time is displayed.


CHURCHILL/MB    (show WxCam)

METAR CYYQ 020500Z 09004KT 15SM -SN SCT025 OVC039 M08/M09 A3001 RMK
SC4SC4 SLP163=
METAR CYYQ 020400Z 09005KT 15SM -SN SCT026 OVC041 M08/M10 A2999 RMK
SC4SC4 SLP158=
METAR CYYQ 020300Z 08004KT 15SM -SN SCT022 OVC045 M07/M09 A2999 RMK
SC4SC4 SLP158=

TAF CYYQ 012342Z 0200/0224 08010KT P6SM SCT010 OVC030 TEMPO 0200/0204
5SM -SN BKN010 OVC030
FM020400 15005KT P6SM SCT015 OVC030 TEMPO 0204/0224 4SM -SN
BECMG 0215/0217 16015KT
Your time UTC time
Weather data provided by Environment Canada and NAV CANADA